createdAt,value
2019-01-10T00:01:16.107Z,90.80
2019-01-10T00:04:18.138Z,87.73
2019-01-10T00:07:20.022Z,91.10
2019-01-10T00:10:21.982Z,93.83
2019-01-10T00:13:23.944Z,102.27
2019-01-10T00:16:26.365Z,109.07
2019-01-10T00:19:28.303Z,115.10
2019-01-10T00:22:30.291Z,116.87
2019-01-10T00:25:33.296Z,126.50
2019-01-10T00:28:36.259Z,123.67
2019-01-10T00:31:39.305Z,115.33
2019-01-10T00:34:44.318Z,122.50
2019-01-10T00:37:47.683Z,116.13
2019-01-10T00:40:50.973Z,117.83
2019-01-10T00:43:54.979Z,126.53
2019-01-10T00:46:58.326Z,113.13
2019-01-10T00:50:01.623Z,125.37
2019-01-10T00:53:04.499Z,114.53
2019-01-10T00:56:07.981Z,121.50
2019-01-10T00:59:13.048Z,125.47
2019-01-10T01:02:15.623Z,127.13
2019-01-10T01:05:17.921Z,123.67
2019-01-10T01:08:19.830Z,122.63
2019-01-10T01:11:21.810Z,119.50
2019-01-10T01:14:23.714Z,123.40
2019-01-10T01:17:25.869Z,115.87
2019-01-10T01:20:27.953Z,128.60
2019-01-10T01:23:29.947Z,116.83
2019-01-10T01:26:31.869Z,110.40
2019-01-10T01:29:33.820Z,117.30
2019-01-10T01:32:35.745Z,124.33
2019-01-10T01:35:38.158Z,116.40
2019-01-10T01:38:40.118Z,115.77
2019-01-10T01:41:42.108Z,111.83
2019-01-10T01:44:44.078Z,112.97
2019-01-10T01:47:46.222Z,123.73
2019-01-10T01:50:48.131Z,127.00
2019-01-10T01:53:50.083Z,119.70
2019-01-10T01:56:53.464Z,119.60
2019-01-10T01:59:55.609Z,118.40
2019-01-10T02:02:57.544Z,118.83
2019-01-10T02:05:59.506Z,107.80
2019-01-10T02:09:01.430Z,117.47
2019-01-10T02:12:04.577Z,119.53
2019-01-10T02:15:06.621Z,116.03
2019-01-10T02:18:08.669Z,105.13
2019-01-10T02:21:10.633Z,111.13
2019-01-10T02:24:12.566Z,105.63
2019-01-10T02:27:14.567Z,98.30
2019-01-10T02:30:21.950Z,111.57
2019-01-10T02:33:24.986Z,103.77
2019-01-10T02:36:27.022Z,127.07
2019-01-10T02:39:29.035Z,105.43
2019-01-10T02:42:30.974Z,110.93
2019-01-10T02:45:32.834Z,110.40
2019-01-10T02:48:34.783Z,124.67
2019-01-10T02:51:36.801Z,109.50
2019-01-10T02:54:38.870Z,113.87
2019-01-10T02:57:40.946Z,109.90
2019-01-10T03:00:42.923Z,113.73
2019-01-10T03:03:44.844Z,111.47
2019-01-10T03:06:46.781Z,116.43
2019-01-10T03:09:48.709Z,108.97
2019-01-10T03:12:52.033Z,109.17
2019-01-10T03:15:53.948Z,122.27
2019-01-10T03:18:56.145Z,118.17
2019-01-10T03:21:58.127Z,121.40
2019-01-10T03:25:00.192Z,117.03
2019-01-10T03:28:02.143Z,118.40
2019-01-10T03:31:04.782Z,115.53
2019-01-10T03:34:06.721Z,113.90
2019-01-10T03:37:08.646Z,120.30
2019-01-10T03:40:15.830Z,106.40
2019-01-10T03:43:17.814Z,129.27
2019-01-10T03:46:19.808Z,110.63
2019-01-10T03:49:21.806Z,113.43
2019-01-10T03:52:23.755Z,113.30
2019-01-10T03:55:25.795Z,114.57
2019-01-10T03:58:27.950Z,124.47
2019-01-10T04:01:29.954Z,116.03
2019-01-10T04:04:31.881Z,113.87
2019-01-10T04:07:33.852Z,124.07
2019-01-10T04:10:35.833Z,108.60
2019-01-10T04:13:37.895Z,112.97
2019-01-10T04:16:39.785Z,126.40
2019-01-10T04:19:41.732Z,121.47
2019-01-10T04:22:43.748Z,109.73
2019-01-10T04:25:45.773Z,121.30
2019-01-10T04:28:47.833Z,121.40
2019-01-10T04:31:49.904Z,108.73
2019-01-10T04:34:51.795Z,111.07
2019-01-10T04:37:53.762Z,116.77
2019-01-10T04:40:55.638Z,103.20
2019-01-10T04:44:06.692Z,115.30
2019-01-10T04:47:02.139Z,112.73
2019-01-10T04:50:07.595Z,114.33
2019-01-10T04:53:09.551Z,112.70
2019-01-10T04:56:11.532Z,130.07
2019-01-10T04:59:13.717Z,150.43
2019-01-10T05:02:18.450Z,153.47
2019-01-10T05:05:19.707Z,148.30
2019-01-10T05:08:21.709Z,146.87
2019-01-10T05:11:23.634Z,148.77
2019-01-10T05:14:25.706Z,141.03
2019-01-10T05:17:30.172Z,144.73
2019-01-10T05:20:31.642Z,144.33
2019-01-10T05:23:33.631Z,130.10
2019-01-10T05:26:35.650Z,131.10
2019-01-10T05:29:37.636Z,130.43
2019-01-10T05:32:39.601Z,131.60
2019-01-10T05:35:41.547Z,123.10
2019-01-10T05:38:43.494Z,118.17
2019-01-10T05:41:45.437Z,122.33
2019-01-10T05:44:47.931Z,117.07
2019-01-10T05:47:49.919Z,117.77
2019-01-10T05:50:51.858Z,102.00
2019-01-10T05:53:53.755Z,113.30
2019-01-10T05:56:55.719Z,212.37
2019-01-10T05:59:57.894Z,137.07
2019-01-10T06:02:59.925Z,162.97
2019-01-10T06:06:01.914Z,170.53
2019-01-10T06:09:07.224Z,222.43
2019-01-10T06:12:09.132Z,219.87
2019-01-10T06:15:13.628Z,238.80
2019-01-10T06:18:16.867Z,159.20
2019-01-10T06:21:18.830Z,138.57
2019-01-10T06:24:20.812Z,149.17
2019-01-10T06:27:22.806Z,136.67
2019-01-10T06:30:24.810Z,506.63
2019-01-10T06:33:26.882Z,506.73
2019-01-10T06:36:28.832Z,426.23
2019-01-10T06:39:31.066Z,263.03
2019-01-10T06:42:33.033Z,255.60
2019-01-10T06:45:35.419Z,214.40
2019-01-10T06:48:37.440Z,147.37
2019-01-10T06:51:39.629Z,147.67
2019-01-10T06:54:41.582Z,143.10
2019-01-10T06:57:43.563Z,142.03
2019-01-10T07:00:45.624Z,128.50
2019-01-10T07:03:47.622Z,118.57
2019-01-10T07:06:49.600Z,115.90
2019-01-10T07:09:51.621Z,117.27
2019-01-10T07:12:53.578Z,113.17
2019-01-10T07:15:55.564Z,112.03
2019-01-10T07:18:57.534Z,120.53
2019-01-10T07:21:59.434Z,113.00
2019-01-10T07:25:01.438Z,105.47
2019-01-10T07:28:07.549Z,111.47
2019-01-10T07:31:11.322Z,105.90
2019-01-10T07:34:13.351Z,114.53
2019-01-10T07:37:15.284Z,114.40
2019-01-10T07:40:17.244Z,109.10
2019-01-10T07:43:20.601Z,116.93
2019-01-10T07:46:23.379Z,150.67
2019-01-10T07:49:25.309Z,141.03
2019-01-10T07:52:27.303Z,213.00
2019-01-10T07:55:29.329Z,208.30
2019-01-10T07:58:31.382Z,126.83
2019-01-10T08:01:33.433Z,112.27
2019-01-10T08:04:36.598Z,246.43
2019-01-10T08:07:38.774Z,130.40
2019-01-10T08:10:40.781Z,136.47
2019-01-10T08:13:43.922Z,116.40
2019-01-10T08:16:45.909Z,115.20
2019-01-10T08:19:47.854Z,129.30
2019-01-10T08:22:49.807Z,125.77
2019-01-10T08:25:51.764Z,128.33
2019-01-10T08:28:53.717Z,116.80
2019-01-10T08:31:55.647Z,116.00
2019-01-10T08:34:57.616Z,105.37
2019-01-10T08:37:59.569Z,131.53
2019-01-10T08:41:01.584Z,201.00
2019-01-10T08:44:03.607Z,127.53
2019-01-10T08:47:06.572Z,168.60
2019-01-10T08:50:12.140Z,178.93
2019-01-10T08:53:14.326Z,174.27
2019-01-10T08:56:16.262Z,162.87
2019-01-10T08:59:18.225Z,146.07
2019-01-10T09:02:20.344Z,147.57
2019-01-10T09:05:22.378Z,106.37
2019-01-10T09:08:24.318Z,100.80
2019-01-10T09:11:26.316Z,110.87
2019-01-10T09:14:28.338Z,86.77
2019-01-10T09:17:30.282Z,98.73
2019-01-10T09:20:32.196Z,75.67
2019-01-10T09:23:34.163Z,75.17
2019-01-10T09:26:37.571Z,71.43
2019-01-10T09:29:40.067Z,66.90
2019-01-10T09:32:42.013Z,70.37
2019-01-10T09:35:43.956Z,75.13
2019-01-10T09:38:45.867Z,104.13
2019-01-10T09:41:47.867Z,128.97
2019-01-10T09:44:49.787Z,131.00
2019-01-10T09:47:53.349Z,143.53
2019-01-10T09:50:55.515Z,107.97
2019-01-10T09:53:57.906Z,106.37
2019-01-10T09:56:59.774Z,58.63
2019-01-10T10:00:02.829Z,94.73
2019-01-10T10:03:04.862Z,104.80
2019-01-10T10:06:07.842Z,131.27
2019-01-10T10:09:10.151Z,87.27
2019-01-10T10:12:12.071Z,82.20
2019-01-10T10:15:16.080Z,76.47
2019-01-10T10:18:18.120Z,75.80
2019-01-10T10:21:20.102Z,81.50
2019-01-10T10:24:22.039Z,65.73
2019-01-10T10:27:23.953Z,58.53
2019-01-10T10:30:25.922Z,61.53
2019-01-10T10:33:27.897Z,51.77
2019-01-10T10:36:30.093Z,55.63
2019-01-10T10:39:32.030Z,51.47
2019-01-10T10:42:34.289Z,55.00
2019-01-10T10:45:36.211Z,58.13
2019-01-10T10:48:38.243Z,55.90
2019-01-10T10:51:40.136Z,61.93
2019-01-10T10:54:42.250Z,56.30
2019-01-10T10:57:44.152Z,64.43
2019-01-10T11:00:46.358Z,63.23
2019-01-10T11:03:48.393Z,64.00
2019-01-10T11:06:50.366Z,62.97
2019-01-10T11:09:52.297Z,60.97
2019-01-10T11:12:54.347Z,63.47
2019-01-10T11:15:56.261Z,61.83
2019-01-10T11:18:58.295Z,69.70
2019-01-10T11:22:00.228Z,80.07
2019-01-10T11:25:02.297Z,66.60
2019-01-10T11:28:05.155Z,60.37
2019-01-10T11:31:07.174Z,62.67
2019-01-10T11:34:09.145Z,58.67
2019-01-10T11:37:11.039Z,64.60
2019-01-10T11:40:15.911Z,69.73
2019-01-10T11:43:18.113Z,61.27
2019-01-10T11:46:20.160Z,65.80
2019-01-10T11:49:22.464Z,59.77
2019-01-10T11:52:24.381Z,58.03
2019-01-10T11:55:26.327Z,55.30
2019-01-10T11:58:28.261Z,65.07
2019-01-10T12:01:30.262Z,63.77
2019-01-10T12:04:32.271Z,60.07
2019-01-10T12:07:34.192Z,60.37
2019-01-10T12:10:36.087Z,60.93
2019-01-10T12:13:38.041Z,76.23
2019-01-10T12:16:39.957Z,121.50
2019-01-10T12:19:41.945Z,146.80
2019-01-10T12:22:44.169Z,91.13
2019-01-10T12:25:46.110Z,106.33
2019-01-10T12:28:48.018Z,133.53
2019-01-10T12:31:49.967Z,111.80
2019-01-10T12:34:51.892Z,101.37
2019-01-10T12:37:53.866Z,117.60
2019-01-10T12:40:55.816Z,100.97
2019-01-10T12:43:57.790Z,76.97
2019-01-10T12:46:59.871Z,65.73
2019-01-10T12:50:01.958Z,64.97
2019-01-10T12:53:03.875Z,67.97
2019-01-10T12:56:05.972Z,74.47
2019-01-10T12:59:07.844Z,66.10
2019-01-10T13:02:09.777Z,71.90
2019-01-10T13:05:12.535Z,71.27
2019-01-10T13:08:14.688Z,67.60
2019-01-10T13:11:16.557Z,67.00
2019-01-10T13:14:19.295Z,62.33
2019-01-10T13:17:21.192Z,61.13
2019-01-10T13:20:23.278Z,54.23
2019-01-10T13:23:25.177Z,60.33
2019-01-10T13:26:27.114Z,54.40
2019-01-10T13:29:29.026Z,61.77
2019-01-10T13:32:31.008Z,64.43
2019-01-10T13:35:32.977Z,63.23
2019-01-10T13:38:34.987Z,54.17
2019-01-10T13:41:36.875Z,49.00
2019-01-10T13:44:38.826Z,48.07
2019-01-10T13:47:41.022Z,47.33
2019-01-10T13:50:43.297Z,49.60
2019-01-10T13:53:45.233Z,44.57
2019-01-10T13:56:47.226Z,46.63
2019-01-10T13:59:49.157Z,38.73
2019-01-10T14:02:51.583Z,43.33
2019-01-10T14:05:53.678Z,93.33
2019-01-10T14:08:55.855Z,58.90
2019-01-10T14:11:57.856Z,44.33
2019-01-10T14:14:59.876Z,38.57
2019-01-10T14:18:01.779Z,39.63
2019-01-10T14:21:03.816Z,44.67
2019-01-10T14:24:05.725Z,41.63
2019-01-10T14:27:07.791Z,42.67
2019-01-10T14:30:16.465Z,53.20
2019-01-10T14:33:18.712Z,46.70
2019-01-10T14:36:20.660Z,40.93
2019-01-10T14:39:22.701Z,42.63
2019-01-10T14:42:24.665Z,44.43
2019-01-10T14:45:26.636Z,47.70
2019-01-10T14:48:28.538Z,50.37
2019-01-10T14:51:30.718Z,46.83
2019-01-10T14:54:32.669Z,35.77
2019-01-10T14:57:34.755Z,41.63
2019-01-10T15:00:36.874Z,31.77
2019-01-10T15:03:38.895Z,36.07
2019-01-10T15:06:40.965Z,36.23
2019-01-10T15:09:43.091Z,44.70
2019-01-10T15:12:45.798Z,40.67
2019-01-10T15:15:47.768Z,37.50
2019-01-10T15:18:49.705Z,37.23
2019-01-10T15:21:52.248Z,44.53
2019-01-10T15:24:54.155Z,41.60
2019-01-10T15:27:56.161Z,38.47
2019-01-10T15:30:58.154Z,34.83
2019-01-10T15:34:00.110Z,35.93
2019-01-10T15:37:02.065Z,38.00
2019-01-10T15:40:13.765Z,41.37
2019-01-10T15:43:15.758Z,30.40
2019-01-10T15:46:17.909Z,33.23
2019-01-10T15:49:19.894Z,24.20
2019-01-10T15:52:22.354Z,23.47
2019-01-10T15:55:26.194Z,32.63
2019-01-10T15:58:28.182Z,31.93
2019-01-10T16:01:30.133Z,27.67
2019-01-10T16:04:32.112Z,22.83
2019-01-10T16:07:34.300Z,22.00
2019-01-10T16:10:36.351Z,25.63
2019-01-10T16:13:38.351Z,23.37
2019-01-10T16:16:40.390Z,26.87
2019-01-10T16:19:42.311Z,29.20
2019-01-10T16:22:44.897Z,32.20
2019-01-10T16:25:46.959Z,33.27
2019-01-10T16:28:49.097Z,36.50
2019-01-10T16:31:51.197Z,36.20
2019-01-10T16:34:53.162Z,36.10
2019-01-10T16:37:55.364Z,26.90
2019-01-10T16:40:57.476Z,30.77
2019-01-10T16:43:59.409Z,32.10
2019-01-10T16:47:01.358Z,30.77
2019-01-10T16:50:06.793Z,27.33
2019-01-10T16:53:08.937Z,25.27
2019-01-10T16:56:10.981Z,23.23
2019-01-10T16:59:12.951Z,31.03
2019-01-10T17:02:14.983Z,24.97
2019-01-10T17:05:17.395Z,29.33
2019-01-10T17:08:19.447Z,31.50
2019-01-10T17:11:21.468Z,26.13
2019-01-10T17:14:23.426Z,31.97
2019-01-10T17:17:25.402Z,27.13
2019-01-10T17:20:27.404Z,30.03
2019-01-10T17:23:29.478Z,32.33
2019-01-10T17:26:31.427Z,119.97
2019-01-10T17:29:33.956Z,116.80
2019-01-10T17:32:35.881Z,33.20
2019-01-10T17:35:38.460Z,25.40
2019-01-10T17:38:40.437Z,25.73
2019-01-10T17:41:42.423Z,27.50
2019-01-10T17:44:44.348Z,29.37
2019-01-10T17:47:46.304Z,31.13
2019-01-10T17:50:48.282Z,31.27
2019-01-10T17:53:51.469Z,33.20
2019-01-10T17:56:53.347Z,51.00
2019-01-10T17:59:55.348Z,51.90
2019-01-10T18:02:57.474Z,39.03
2019-01-10T18:05:59.431Z,37.80
2019-01-10T18:09:03.633Z,37.67
2019-01-10T18:12:06.723Z,43.13
2019-01-10T18:15:11.278Z,36.63
2019-01-10T18:18:13.280Z,32.90
2019-01-10T18:21:15.298Z,39.87
2019-01-10T18:24:17.291Z,40.57
2019-01-10T18:27:19.294Z,36.87
2019-01-10T18:30:22.978Z,39.47
2019-01-10T18:33:25.213Z,37.97
2019-01-10T18:36:27.227Z,36.43
2019-01-10T18:39:30.704Z,34.53
2019-01-10T18:42:32.748Z,31.93
2019-01-10T18:45:34.678Z,29.37
2019-01-10T18:48:39.853Z,30.97
2019-01-10T18:51:40.508Z,31.77
2019-01-10T18:54:42.668Z,30.70
2019-01-10T18:57:47.708Z,33.27
2019-01-10T19:00:49.673Z,31.67
2019-01-10T19:03:52.186Z,32.77
2019-01-10T19:06:54.235Z,35.37
2019-01-10T19:09:57.682Z,33.90
2019-01-10T19:12:59.645Z,32.97
2019-01-10T19:16:01.585Z,36.27
2019-01-10T19:19:03.727Z,39.10
2019-01-10T19:22:05.675Z,38.60
2019-01-10T19:25:09.406Z,33.67
2019-01-10T19:28:11.762Z,37.20
2019-01-10T19:31:14.368Z,39.23
2019-01-10T19:34:16.434Z,38.80
2019-01-10T19:37:18.462Z,40.00
2019-01-10T19:40:21.320Z,38.83
2019-01-10T19:43:25.453Z,35.53
2019-01-10T19:50:37.147Z,47.90
2019-01-10T19:53:39.129Z,46.23
2019-01-10T19:56:42.407Z,84.20
2019-01-10T19:59:44.570Z,51.50
2019-01-10T20:02:48.103Z,49.07
2019-01-10T20:05:50.833Z,46.53
2019-01-10T20:08:53.372Z,45.60
2019-01-10T20:11:56.006Z,48.33
2019-01-10T20:14:58.399Z,57.60
2019-01-10T20:18:04.262Z,57.63
2019-01-10T20:21:07.475Z,48.40
2019-01-10T20:24:13.092Z,48.03
2019-01-10T20:27:15.434Z,53.37
2019-01-10T20:30:17.725Z,52.03
2019-01-10T20:33:19.710Z,53.93
2019-01-10T20:36:22.017Z,62.90
2019-01-10T20:39:24.701Z,55.00
2019-01-10T20:42:26.730Z,69.80
2019-01-10T20:45:28.687Z,61.37
2019-01-10T20:48:32.571Z,99.23
2019-01-10T20:51:34.612Z,87.63
2019-01-10T20:54:37.126Z,75.83
2019-01-10T20:57:39.073Z,79.97
2019-01-10T21:00:41.321Z,86.53
2019-01-10T21:03:43.714Z,76.17
2019-01-10T21:06:45.653Z,125.90
2019-01-10T21:09:48.839Z,64.23
2019-01-10T21:12:52.309Z,68.63
2019-01-10T21:15:54.946Z,53.33
2019-01-10T21:18:56.854Z,55.47
2019-01-10T21:21:58.793Z,51.93
2019-01-10T21:25:01.984Z,70.23
2019-01-10T21:28:03.963Z,55.67
2019-01-10T21:31:06.083Z,44.83
2019-01-10T21:34:08.359Z,47.20
2019-01-10T21:37:10.383Z,54.53
2019-01-10T21:40:18.494Z,44.97
2019-01-10T21:43:20.479Z,50.27
2019-01-10T21:46:22.453Z,42.93
2019-01-10T21:49:24.357Z,43.77
2019-01-10T21:52:26.316Z,43.13
2019-01-10T21:55:28.218Z,45.03
2019-01-10T21:58:30.629Z,44.70
2019-01-10T22:01:34.022Z,41.30
2019-01-10T22:04:36.241Z,38.43
2019-01-10T22:07:38.179Z,43.97
2019-01-10T22:10:40.129Z,47.23
2019-01-10T22:13:42.215Z,38.90
2019-01-10T22:16:44.203Z,44.73
2019-01-10T22:19:46.118Z,43.67
2019-01-10T22:22:48.179Z,47.40
2019-01-10T22:25:50.166Z,41.90
2019-01-10T22:28:52.700Z,41.03
2019-01-10T22:31:54.645Z,44.43
2019-01-10T22:34:56.617Z,42.40
2019-01-10T22:37:58.572Z,43.57
2019-01-10T22:41:00.545Z,44.07
2019-01-10T22:44:02.818Z,44.10
2019-01-10T22:47:04.752Z,43.27
2019-01-10T22:50:10.234Z,47.53
2019-01-10T22:53:12.177Z,47.40
2019-01-10T22:56:14.110Z,52.83
2019-01-10T22:59:16.122Z,67.50
2019-01-10T23:02:18.645Z,68.87
2019-01-10T23:05:20.649Z,49.33
2019-01-10T23:08:23.454Z,44.40
2019-01-10T23:11:25.625Z,50.30
2019-01-10T23:14:27.756Z,53.53
2019-01-10T23:17:33.216Z,47.30
2019-01-10T23:20:35.209Z,47.63
2019-01-10T23:23:37.219Z,42.97
2019-01-10T23:26:39.155Z,47.37
2019-01-10T23:29:41.173Z,40.37
2019-01-10T23:32:43.077Z,36.80
2019-01-10T23:35:46.772Z,37.83
2019-01-10T23:39:09.958Z,40.10
2019-01-10T23:42:12.316Z,38.93
2019-01-10T23:45:14.423Z,40.30
2019-01-10T23:48:16.482Z,67.50
2019-01-10T23:51:18.467Z,50.43
2019-01-10T23:54:20.500Z,42.87
2019-01-10T23:57:22.461Z,48.93
